sensor_id;sensor_type;location;lat;lon;timestamp;temperature;humidity
65478;SHT31;53678;39.642;22.430;2023-04-03T00:02:15;13.45;74.00
65478;SHT31;53678;39.642;22.430;2023-04-03T00:04:40;13.49;73.95
65478;SHT31;53678;39.642;22.430;2023-04-03T00:07:07;13.43;74.22
65478;SHT31;53678;39.642;22.430;2023-04-03T00:09:32;13.43;74.30
65478;SHT31;53678;39.642;22.430;2023-04-03T00:11:58;13.48;74.38
65478;SHT31;53678;39.642;22.430;2023-04-03T00:14:24;13.58;74.28
65478;SHT31;53678;39.642;22.430;2023-04-03T00:16:49;13.83;73.38
65478;SHT31;53678;39.642;22.430;2023-04-03T00:19:15;13.82;73.51
65478;SHT31;53678;39.642;22.430;2023-04-03T00:21:41;13.99;73.19
65478;SHT31;53678;39.642;22.430;2023-04-03T00:24:06;13.93;73.54
65478;SHT31;53678;39.642;22.430;2023-04-03T00:26:32;13.89;73.85
65478;SHT31;53678;39.642;22.430;2023-04-03T00:28:58;13.82;73.76
65478;SHT31;53678;39.642;22.430;2023-04-03T00:31:23;13.67;74.24
65478;SHT31;53678;39.642;22.430;2023-04-03T00:33:49;13.53;74.73
65478;SHT31;53678;39.642;22.430;2023-04-03T00:36:15;13.46;75.02
65478;SHT31;53678;39.642;22.430;2023-04-03T00:38:41;13.46;75.30
65478;SHT31;53678;39.642;22.430;2023-04-03T00:41:07;13.59;74.86
65478;SHT31;53678;39.642;22.430;2023-04-03T00:43:33;13.32;76.32
65478;SHT31;53678;39.642;22.430;2023-04-03T00:45:59;13.48;75.32
65478;SHT31;53678;39.642;22.430;2023-04-03T00:48:41;13.58;74.62
65478;SHT31;53678;39.642;22.430;2023-04-03T00:51:13;13.55;75.13
65478;SHT31;53678;39.642;22.430;2023-04-03T00:53:43;13.61;75.26
65478;SHT31;53678;39.642;22.430;2023-04-03T00:56:13;13.53;75.49
65478;SHT31;53678;39.642;22.430;2023-04-03T00:58:45;13.38;76.40
65478;SHT31;53678;39.642;22.430;2023-04-03T01:01:16;13.38;77.12
65478;SHT31;53678;39.642;22.430;2023-04-03T01:03:44;13.45;77.64
65478;SHT31;53678;39.642;22.430;2023-04-03T01:06:21;13.56;76.99
65478;SHT31;53678;39.642;22.430;2023-04-03T01:08:49;13.55;77.07
65478;SHT31;53678;39.642;22.430;2023-04-03T01:11:15;13.56;77.44
65478;SHT31;53678;39.642;22.430;2023-04-03T01:13:42;13.45;78.01
65478;SHT31;53678;39.642;22.430;2023-04-03T01:16:08;13.43;76.79
65478;SHT31;53678;39.642;22.430;2023-04-03T01:18:37;13.62;76.66
65478;SHT31;53678;39.642;22.430;2023-04-03T01:26:04;13.90;76.30
65478;SHT31;53678;39.642;22.430;2023-04-03T01:28:33;13.93;76.00
65478;SHT31;53678;39.642;22.430;2023-04-03T01:31:25;13.89;76.17
65478;SHT31;53678;39.642;22.430;2023-04-03T01:33:54;13.91;76.33
65478;SHT31;53678;39.642;22.430;2023-04-03T01:36:26;13.90;76.67
65478;SHT31;53678;39.642;22.430;2023-04-03T01:38:54;13.79;76.69
65478;SHT31;53678;39.642;22.430;2023-04-03T01:41:21;13.58;77.56
65478;SHT31;53678;39.642;22.430;2023-04-03T01:43:48;13.52;78.27
65478;SHT31;53678;39.642;22.430;2023-04-03T01:46:15;13.55;78.39
65478;SHT31;53678;39.642;22.430;2023-04-03T01:48:42;13.29;79.50
65478;SHT31;53678;39.642;22.430;2023-04-03T01:51:08;13.07;79.51
65478;SHT31;53678;39.642;22.430;2023-04-03T01:53:34;12.97;80.07
65478;SHT31;53678;39.642;22.430;2023-04-03T01:56:00;12.93;80.52
65478;SHT31;53678;39.642;22.430;2023-04-03T01:58:26;13.01;80.11
65478;SHT31;53678;39.642;22.430;2023-04-03T02:00:53;12.88;80.45
65478;SHT31;53678;39.642;22.430;2023-04-03T02:03:19;13.01;79.65
65478;SHT31;53678;39.642;22.430;2023-04-03T02:05:45;12.93;79.42
65478;SHT31;53678;39.642;22.430;2023-04-03T02:08:11;12.83;80.37
65478;SHT31;53678;39.642;22.430;2023-04-03T02:10:38;12.87;79.87
65478;SHT31;53678;39.642;22.430;2023-04-03T02:13:05;12.56;80.47
65478;SHT31;53678;39.642;22.430;2023-04-03T02:15:31;12.59;80.10
65478;SHT31;53678;39.642;22.430;2023-04-03T02:17:57;12.29;81.11
65478;SHT31;53678;39.642;22.430;2023-04-03T02:20:23;12.36;81.11
65478;SHT31;53678;39.642;22.430;2023-04-03T02:22:48;12.37;81.52
65478;SHT31;53678;39.642;22.430;2023-04-03T02:25:14;12.53;80.81
65478;SHT31;53678;39.642;22.430;2023-04-03T02:27:40;12.43;80.90
65478;SHT31;53678;39.642;22.430;2023-04-03T02:30:06;12.46;81.09
65478;SHT31;53678;39.642;22.430;2023-04-03T02:32:34;12.59;80.74
65478;SHT31;53678;39.642;22.430;2023-04-03T02:35:01;12.81;80.17
65478;SHT31;53678;39.642;22.430;2023-04-03T02:37:28;12.80;80.12
65478;SHT31;53678;39.642;22.430;2023-04-03T02:39:54;12.80;81.11
65478;SHT31;53678;39.642;22.430;2023-04-03T02:42:19;12.88;81.94
65478;SHT31;53678;39.642;22.430;2023-04-03T02:44:45;12.79;83.80
65478;SHT31;53678;39.642;22.430;2023-04-03T02:47:11;12.79;86.01
65478;SHT31;53678;39.642;22.430;2023-04-03T02:49:37;12.79;85.83
65478;SHT31;53678;39.642;22.430;2023-04-03T02:52:03;12.91;86.19
65478;SHT31;53678;39.642;22.430;2023-04-03T02:54:29;12.91;86.19
65478;SHT31;53678;39.642;22.430;2023-04-03T02:56:59;13.07;86.34
65478;SHT31;53678;39.642;22.430;2023-04-03T02:59:25;13.25;85.40
65478;SHT31;53678;39.642;22.430;2023-04-03T03:01:51;13.26;85.57
65478;SHT31;53678;39.642;22.430;2023-04-03T03:04:16;13.11;86.28
65478;SHT31;53678;39.642;22.430;2023-04-03T03:06:42;13.08;87.15
65478;SHT31;53678;39.642;22.430;2023-04-03T03:09:08;13.28;87.01
65478;SHT31;53678;39.642;22.430;2023-04-03T03:11:34;13.14;87.99
65478;SHT31;53678;39.642;22.430;2023-04-03T03:14:01;13.10;88.63
65478;SHT31;53678;39.642;22.430;2023-04-03T03:16:27;13.05;89.11
65478;SHT31;53678;39.642;22.430;2023-04-03T03:18:53;12.98;89.14
65478;SHT31;53678;39.642;22.430;2023-04-03T03:21:18;13.03;89.58
65478;SHT31;53678;39.642;22.430;2023-04-03T03:23:44;13.22;89.01
65478;SHT31;53678;39.642;22.430;2023-04-03T03:26:11;13.04;89.93
65478;SHT31;53678;39.642;22.430;2023-04-03T03:28:38;13.03;90.52
65478;SHT31;53678;39.642;22.430;2023-04-03T03:31:05;13.12;90.55
65478;SHT31;53678;39.642;22.430;2023-04-03T03:33:32;13.14;90.32
65478;SHT31;53678;39.642;22.430;2023-04-03T03:35:59;13.22;90.41
65478;SHT31;53678;39.642;22.430;2023-04-03T03:38:24;13.29;90.45
65478;SHT31;53678;39.642;22.430;2023-04-03T03:40:51;13.52;89.64
65478;SHT31;53678;39.642;22.430;2023-04-03T03:43:19;13.82;86.86
65478;SHT31;53678;39.642;22.430;2023-04-03T03:45:51;14.03;87.53
65478;SHT31;53678;39.642;22.430;2023-04-03T03:48:18;14.00;88.38
65478;SHT31;53678;39.642;22.430;2023-04-03T03:50:44;13.79;89.14
65478;SHT31;53678;39.642;22.430;2023-04-03T03:53:10;13.66;90.22
65478;SHT31;53678;39.642;22.430;2023-04-03T03:55:36;13.69;90.54
65478;SHT31;53678;39.642;22.430;2023-04-03T03:58:02;13.51;90.70
65478;SHT31;53678;39.642;22.430;2023-04-03T04:00:31;13.42;91.31
65478;SHT31;53678;39.642;22.430;2023-04-03T04:02:57;13.56;91.21
65478;SHT31;53678;39.642;22.430;2023-04-03T04:05:24;13.34;91.31
65478;SHT31;53678;39.642;22.430;2023-04-03T04:07:52;13.26;91.87
65478;SHT31;53678;39.642;22.430;2023-04-03T04:10:18;13.21;91.89
65478;SHT31;53678;39.642;22.430;2023-04-03T04:12:45;13.21;91.92
65478;SHT31;53678;39.642;22.430;2023-04-03T04:15:11;13.19;91.67
65478;SHT31;53678;39.642;22.430;2023-04-03T04:17:38;13.21;91.82
65478;SHT31;53678;39.642;22.430;2023-04-03T04:20:08;13.10;91.88
65478;SHT31;53678;39.642;22.430;2023-04-03T04:22:35;13.19;92.09
65478;SHT31;53678;39.642;22.430;2023-04-03T04:25:01;13.19;91.96
65478;SHT31;53678;39.642;22.430;2023-04-03T04:27:27;13.16;92.06
65478;SHT31;53678;39.642;22.430;2023-04-03T04:29:53;13.25;91.92
65478;SHT31;53678;39.642;22.430;2023-04-03T04:32:21;13.01;92.29
65478;SHT31;53678;39.642;22.430;2023-04-03T04:34:47;13.01;92.42
65478;SHT31;53678;39.642;22.430;2023-04-03T04:37:13;13.07;92.32
65478;SHT31;53678;39.642;22.430;2023-04-03T04:39:39;12.90;92.77
65478;SHT31;53678;39.642;22.430;2023-04-03T04:42:05;12.95;92.86
65478;SHT31;53678;39.642;22.430;2023-04-03T04:44:33;13.03;92.70
65478;SHT31;53678;39.642;22.430;2023-04-03T04:46:59;13.14;92.84
65478;SHT31;53678;39.642;22.430;2023-04-03T04:49:25;12.98;92.85
65478;SHT31;53678;39.642;22.430;2023-04-03T04:51:52;12.90;92.81
65478;SHT31;53678;39.642;22.430;2023-04-03T04:54:24;12.90;92.92
65478;SHT31;53678;39.642;22.430;2023-04-03T04:56:51;12.84;92.69
65478;SHT31;53678;39.642;22.430;2023-04-03T04:59:17;12.77;92.25
65478;SHT31;53678;39.642;22.430;2023-04-03T05:01:43;12.91;91.87
65478;SHT31;53678;39.642;22.430;2023-04-03T05:04:14;12.88;91.41
65478;SHT31;53678;39.642;22.430;2023-04-03T05:06:41;12.85;91.01
65478;SHT31;53678;39.642;22.430;2023-04-03T05:09:12;12.83;89.81
65478;SHT31;53678;39.642;22.430;2023-04-03T05:11:40;12.83;88.78
65478;SHT31;53678;39.642;22.430;2023-04-03T05:14:07;12.81;87.74
65478;SHT31;53678;39.642;22.430;2023-04-03T05:16:34;12.83;86.50
65478;SHT31;53678;39.642;22.430;2023-04-03T05:19:00;12.91;85.18
65478;SHT31;53678;39.642;22.430;2023-04-03T05:21:27;12.83;85.14
65478;SHT31;53678;39.642;22.430;2023-04-03T05:24:01;12.84;85.49
65478;SHT31;53678;39.642;22.430;2023-04-03T05:26:31;12.74;85.74
65478;SHT31;53678;39.642;22.430;2023-04-03T05:28:58;12.76;85.20
65478;SHT31;53678;39.642;22.430;2023-04-03T05:31:30;12.84;85.54
65478;SHT31;53678;39.642;22.430;2023-04-03T05:33:56;12.84;84.97
65478;SHT31;53678;39.642;22.430;2023-04-03T05:36:22;12.73;86.89
65478;SHT31;53678;39.642;22.430;2023-04-03T05:38:54;12.66;86.86
65478;SHT31;53678;39.642;22.430;2023-04-03T05:41:22;12.80;85.68
65478;SHT31;53678;39.642;22.430;2023-04-03T05:43:49;12.87;84.57
65478;SHT31;53678;39.642;22.430;2023-04-03T05:46:17;12.95;84.82
65478;SHT31;53678;39.642;22.430;2023-04-03T05:48:46;12.93;85.11
65478;SHT31;53678;39.642;22.430;2023-04-03T05:51:23;12.93;84.92
65478;SHT31;53678;39.642;22.430;2023-04-03T05:54:06;12.84;84.32
65478;SHT31;53678;39.642;22.430;2023-04-03T05:56:32;12.90;84.35
65478;SHT31;53678;39.642;22.430;2023-04-03T05:58:58;13.03;84.56
65478;SHT31;53678;39.642;22.430;2023-04-03T06:01:25;12.93;85.19
65478;SHT31;53678;39.642;22.430;2023-04-03T06:03:51;12.76;85.71
65478;SHT31;53678;39.642;22.430;2023-04-03T06:06:17;12.83;85.87
65478;SHT31;53678;39.642;22.430;2023-04-03T06:08:43;12.79;86.12
65478;SHT31;53678;39.642;22.430;2023-04-03T06:11:10;12.81;86.83
65478;SHT31;53678;39.642;22.430;2023-04-03T06:13:36;12.73;86.35
65478;SHT31;53678;39.642;22.430;2023-04-03T06:16:02;12.67;86.73
65478;SHT31;53678;39.642;22.430;2023-04-03T06:18:29;12.68;86.55
65478;SHT31;53678;39.642;22.430;2023-04-03T06:20:55;12.70;86.07
65478;SHT31;53678;39.642;22.430;2023-04-03T06:23:21;12.72;85.81
65478;SHT31;53678;39.642;22.430;2023-04-03T06:25:47;12.70;85.81
65478;SHT31;53678;39.642;22.430;2023-04-03T06:28:13;12.73;86.02
65478;SHT31;53678;39.642;22.430;2023-04-03T06:30:38;12.79;85.57
65478;SHT31;53678;39.642;22.430;2023-04-03T06:33:04;12.90;83.84
65478;SHT31;53678;39.642;22.430;2023-04-03T06:35:30;12.95;83.58
65478;SHT31;53678;39.642;22.430;2023-04-03T06:37:56;13.15;81.17
65478;SHT31;53678;39.642;22.430;2023-04-03T06:40:24;13.15;81.72
65478;SHT31;53678;39.642;22.430;2023-04-03T06:42:51;13.18;81.57
65478;SHT31;53678;39.642;22.430;2023-04-03T06:45:18;13.24;82.18
65478;SHT31;53678;39.642;22.430;2023-04-03T06:47:44;13.16;82.19
65478;SHT31;53678;39.642;22.430;2023-04-03T06:50:11;13.21;82.16
65478;SHT31;53678;39.642;22.430;2023-04-03T06:52:39;13.18;82.61
65478;SHT31;53678;39.642;22.430;2023-04-03T06:55:06;13.18;82.68
65478;SHT31;53678;39.642;22.430;2023-04-03T06:57:32;13.22;82.25
65478;SHT31;53678;39.642;22.430;2023-04-03T06:59:58;13.22;82.56
65478;SHT31;53678;39.642;22.430;2023-04-03T07:02:23;13.22;82.58
65478;SHT31;53678;39.642;22.430;2023-04-03T07:04:49;13.32;82.56
65478;SHT31;53678;39.642;22.430;2023-04-03T07:07:15;13.35;82.29
65478;SHT31;53678;39.642;22.430;2023-04-03T07:09:43;13.28;82.73
65478;SHT31;53678;39.642;22.430;2023-04-03T07:12:09;13.26;82.87
65478;SHT31;53678;39.642;22.430;2023-04-03T07:14:34;13.38;82.99
65478;SHT31;53678;39.642;22.430;2023-04-03T07:17:02;13.35;82.58
65478;SHT31;53678;39.642;22.430;2023-04-03T07:19:28;13.46;81.76
65478;SHT31;53678;39.642;22.430;2023-04-03T07:21:54;13.55;81.36
65478;SHT31;53678;39.642;22.430;2023-04-03T07:24:20;13.55;81.96
65478;SHT31;53678;39.642;22.430;2023-04-03T07:26:50;13.39;82.05
65478;SHT31;53678;39.642;22.430;2023-04-03T07:29:17;13.46;82.31
65478;SHT31;53678;39.642;22.430;2023-04-03T07:31:42;13.46;83.10
65478;SHT31;53678;39.642;22.430;2023-04-03T07:34:08;13.34;83.08
65478;SHT31;53678;39.642;22.430;2023-04-03T07:36:34;13.21;83.68
65478;SHT31;53678;39.642;22.430;2023-04-03T07:39:01;13.16;84.04
65478;SHT31;53678;39.642;22.430;2023-04-03T07:41:27;13.15;84.10
65478;SHT31;53678;39.642;22.430;2023-04-03T07:43:54;13.16;83.37
65478;SHT31;53678;39.642;22.430;2023-04-03T07:46:22;13.24;83.26
65478;SHT31;53678;39.642;22.430;2023-04-03T07:48:47;13.25;83.55
65478;SHT31;53678;39.642;22.430;2023-04-03T07:51:13;13.22;83.38
65478;SHT31;53678;39.642;22.430;2023-04-03T07:53:39;13.25;83.19
65478;SHT31;53678;39.642;22.430;2023-04-03T07:56:05;13.28;82.81
65478;SHT31;53678;39.642;22.430;2023-04-03T07:58:31;13.25;81.97
65478;SHT31;53678;39.642;22.430;2023-04-03T08:00:56;13.26;81.32
65478;SHT31;53678;39.642;22.430;2023-04-03T08:03:22;13.31;80.93
65478;SHT31;53678;39.642;22.430;2023-04-03T08:05:49;13.38;79.70
65478;SHT31;53678;39.642;22.430;2023-04-03T08:08:19;13.39;79.51
65478;SHT31;53678;39.642;22.430;2023-04-03T08:10:51;13.39;79.96
65478;SHT31;53678;39.642;22.430;2023-04-03T08:13:18;13.42;79.59
65478;SHT31;53678;39.642;22.430;2023-04-03T08:15:44;13.46;78.87
65478;SHT31;53678;39.642;22.430;2023-04-03T08:18:10;13.43;79.59
65478;SHT31;53678;39.642;22.430;2023-04-03T08:20:37;13.43;80.34
65478;SHT31;53678;39.642;22.430;2023-04-03T08:23:04;13.42;81.16
65478;SHT31;53678;39.642;22.430;2023-04-03T08:25:29;13.48;81.44
65478;SHT31;53678;39.642;22.430;2023-04-03T08:27:56;13.41;81.51
65478;SHT31;53678;39.642;22.430;2023-04-03T08:30:22;13.46;80.90
65478;SHT31;53678;39.642;22.430;2023-04-03T08:32:47;13.51;81.41
65478;SHT31;53678;39.642;22.430;2023-04-03T08:35:13;13.56;80.90
65478;SHT31;53678;39.642;22.430;2023-04-03T08:37:40;13.58;81.50
65478;SHT31;53678;39.642;22.430;2023-04-03T08:40:07;13.65;80.41
65478;SHT31;53678;39.642;22.430;2023-04-03T08:45:53;13.83;80.03
65478;SHT31;53678;39.642;22.430;2023-04-03T08:48:24;13.93;80.49
65478;SHT31;53678;39.642;22.430;2023-04-03T08:50:58;13.93;79.86
65478;SHT31;53678;39.642;22.430;2023-04-03T08:53:30;13.93;79.61
65478;SHT31;53678;39.642;22.430;2023-04-03T08:55:58;13.90;80.02
65478;SHT31;53678;39.642;22.430;2023-04-03T08:58:29;13.91;80.19
65478;SHT31;53678;39.642;22.430;2023-04-03T09:01:56;13.84;80.08
65478;SHT31;53678;39.642;22.430;2023-04-03T09:04:13;13.80;80.87
65478;SHT31;53678;39.642;22.430;2023-04-03T09:06:52;13.79;80.98
65478;SHT31;53678;39.642;22.430;2023-04-03T09:09:33;13.83;81.04
65478;SHT31;53678;39.642;22.430;2023-04-03T09:12:11;13.73;82.07
65478;SHT31;53678;39.642;22.430;2023-04-03T09:15:01;13.59;82.67
65478;SHT31;53678;39.642;22.430;2023-04-03T09:17:53;13.51;84.31
65478;SHT31;53678;39.642;22.430;2023-04-03T09:20:32;13.46;85.15
65478;SHT31;53678;39.642;22.430;2023-04-03T09:22:58;13.51;84.16
65478;SHT31;53678;39.642;22.430;2023-04-03T09:25:31;13.51;83.90
65478;SHT31;53678;39.642;22.430;2023-04-03T09:28:00;13.61;84.21
65478;SHT31;53678;39.642;22.430;2023-04-03T09:30:27;13.59;84.29
65478;SHT31;53678;39.642;22.430;2023-04-03T09:32:55;13.61;84.26
65478;SHT31;53678;39.642;22.430;2023-04-03T09:35:25;13.58;84.30
65478;SHT31;53678;39.642;22.430;2023-04-03T09:37:53;13.52;84.93
65478;SHT31;53678;39.642;22.430;2023-04-03T09:43:08;13.38;86.93
65478;SHT31;53678;39.642;22.430;2023-04-03T09:45:46;13.25;87.95
65478;SHT31;53678;39.642;22.430;2023-04-03T09:51:01;13.14;89.06
65478;SHT31;53678;39.642;22.430;2023-04-03T09:53:42;12.95;90.45
65478;SHT31;53678;39.642;22.430;2023-04-03T10:01:29;13.12;90.25
65478;SHT31;53678;39.642;22.430;2023-04-03T10:04:11;13.19;90.21
65478;SHT31;53678;39.642;22.430;2023-04-03T10:06:43;13.19;89.71
65478;SHT31;53678;39.642;22.430;2023-04-03T10:09:23;13.26;89.04
65478;SHT31;53678;39.642;22.430;2023-04-03T10:12:12;13.29;89.67
65478;SHT31;53678;39.642;22.430;2023-04-03T10:14:55;13.38;89.69
65478;SHT31;53678;39.642;22.430;2023-04-03T10:23:02;13.19;90.50
65478;SHT31;53678;39.642;22.430;2023-04-03T10:25:44;13.19;90.28
65478;SHT31;53678;39.642;22.430;2023-04-03T10:28:35;13.29;90.53
65478;SHT31;53678;39.642;22.430;2023-04-03T10:34:21;13.22;90.52
65478;SHT31;53678;39.642;22.430;2023-04-03T10:37:35;13.22;90.46
65478;SHT31;53678;39.642;22.430;2023-04-03T10:40:29;13.31;89.91
65478;SHT31;53678;39.642;22.430;2023-04-03T10:43:06;13.36;89.57
65478;SHT31;53678;39.642;22.430;2023-04-03T10:54:00;13.52;89.08
65478;SHT31;53678;39.642;22.430;2023-04-03T10:56:37;13.42;89.76
65478;SHT31;53678;39.642;22.430;2023-04-03T10:59:30;13.45;90.56
65478;SHT31;53678;39.642;22.430;2023-04-03T11:02:07;13.35;91.25
65478;SHT31;53678;39.642;22.430;2023-04-03T11:04:40;13.42;91.09
65478;SHT31;53678;39.642;22.430;2023-04-03T11:07:18;13.48;92.28
65478;SHT31;53678;39.642;22.430;2023-04-03T11:09:53;13.46;92.09
65478;SHT31;53678;39.642;22.430;2023-04-03T11:15:32;13.66;92.43
65478;SHT31;53678;39.642;22.430;2023-04-03T11:18:13;13.72;92.05
65478;SHT31;53678;39.642;22.430;2023-04-03T11:20:44;13.61;91.72
65478;SHT31;53678;39.642;22.430;2023-04-03T11:23:23;13.61;91.77
65478;SHT31;53678;39.642;22.430;2023-04-03T11:25:53;13.38;92.15
65478;SHT31;53678;39.642;22.430;2023-04-03T11:28:19;13.21;92.77
65478;SHT31;53678;39.642;22.430;2023-04-03T11:33:42;13.10;93.39
65478;SHT31;53678;39.642;22.430;2023-04-03T11:38:48;13.35;92.99
65478;SHT31;53678;39.642;22.430;2023-04-03T11:41:16;13.45;92.59
65478;SHT31;53678;39.642;22.430;2023-04-03T11:44:05;13.29;92.51
65478;SHT31;53678;39.642;22.430;2023-04-03T11:47:01;13.45;91.97
65478;SHT31;53678;39.642;22.430;2023-04-03T11:49:55;13.15;92.59
65478;SHT31;53678;39.642;22.430;2023-04-03T12:00:56;13.24;91.78
65478;SHT31;53678;39.642;22.430;2023-04-03T12:24:13;12.61;92.90
65478;SHT31;53678;39.642;22.430;2023-04-03T12:27:17;12.19;92.94
65478;SHT31;53678;39.642;22.430;2023-04-03T12:45:56;12.29;91.35
65478;SHT31;53678;39.642;22.430;2023-04-03T12:48:29;12.33;91.62
65478;SHT31;53678;39.642;22.430;2023-04-03T12:50:57;12.39;91.23
65478;SHT31;53678;39.642;22.430;2023-04-03T12:53:29;12.53;91.45
65478;SHT31;53678;39.642;22.430;2023-04-03T12:56:25;12.63;90.63
65478;SHT31;53678;39.642;22.430;2023-04-03T12:58:54;12.74;90.58
65478;SHT31;53678;39.642;22.430;2023-04-03T13:01:22;12.88;90.51
65478;SHT31;53678;39.642;22.430;2023-04-03T13:03:52;12.97;90.42
65478;SHT31;53678;39.642;22.430;2023-04-03T13:06:28;12.97;91.21
65478;SHT31;53678;39.642;22.430;2023-04-03T13:08:58;13.10;91.43
65478;SHT31;53678;39.642;22.430;2023-04-03T13:11:28;13.16;91.75
65478;SHT31;53678;39.642;22.430;2023-04-03T13:14:05;13.14;92.04
65478;SHT31;53678;39.642;22.430;2023-04-03T13:16:33;13.08;92.13
65478;SHT31;53678;39.642;22.430;2023-04-03T13:18:59;13.29;91.15
65478;SHT31;53678;39.642;22.430;2023-04-03T13:21:32;13.42;90.56
65478;SHT31;53678;39.642;22.430;2023-04-03T13:24:01;13.59;89.00
65478;SHT31;53678;39.642;22.430;2023-04-03T13:26:31;13.69;89.63
65478;SHT31;53678;39.642;22.430;2023-04-03T13:29:28;13.73;88.78
65478;SHT31;53678;39.642;22.430;2023-04-03T13:31:56;13.77;88.35
65478;SHT31;53678;39.642;22.430;2023-04-03T13:34:25;13.77;87.59
65478;SHT31;53678;39.642;22.430;2023-04-03T13:41:52;13.83;88.31
65478;SHT31;53678;39.642;22.430;2023-04-03T13:46:52;14.03;86.91
65478;SHT31;53678;39.642;22.430;2023-04-03T13:51:46;14.20;85.84
65478;SHT31;53678;39.642;22.430;2023-04-03T13:54:29;14.17;86.29
65478;SHT31;53678;39.642;22.430;2023-04-03T13:56:58;14.20;86.74
65478;SHT31;53678;39.642;22.430;2023-04-03T13:59:30;14.16;87.05
65478;SHT31;53678;39.642;22.430;2023-04-03T14:04:32;14.16;86.48
65478;SHT31;53678;39.642;22.430;2023-04-03T14:06:58;14.21;87.19
65478;SHT31;53678;39.642;22.430;2023-04-03T14:09:27;14.22;86.57
65478;SHT31;53678;39.642;22.430;2023-04-03T14:12:00;14.20;86.43
65478;SHT31;53678;39.642;22.430;2023-04-03T14:14:32;14.20;85.92
65478;SHT31;53678;39.642;22.430;2023-04-03T14:17:01;14.34;85.61
65478;SHT31;53678;39.642;22.430;2023-04-03T14:19:33;14.27;84.70
65478;SHT31;53678;39.642;22.430;2023-04-03T14:22:10;14.31;84.69
65478;SHT31;53678;39.642;22.430;2023-04-03T14:24:36;14.31;84.50
65478;SHT31;53678;39.642;22.430;2023-04-03T14:27:02;14.27;84.55
65478;SHT31;53678;39.642;22.430;2023-04-03T14:29:27;14.24;84.93
65478;SHT31;53678;39.642;22.430;2023-04-03T14:31:53;14.24;85.03
65478;SHT31;53678;39.642;22.430;2023-04-03T14:34:19;14.17;84.29
65478;SHT31;53678;39.642;22.430;2023-04-03T14:36:45;14.17;84.53
65478;SHT31;53678;39.642;22.430;2023-04-03T14:39:17;14.11;83.75
65478;SHT31;53678;39.642;22.430;2023-04-03T14:41:45;14.14;83.86
65478;SHT31;53678;39.642;22.430;2023-04-03T14:44:11;14.17;83.27
65478;SHT31;53678;39.642;22.430;2023-04-03T14:46:39;14.21;82.82
65478;SHT31;53678;39.642;22.430;2023-04-03T14:49:20;14.22;82.85
65478;SHT31;53678;39.642;22.430;2023-04-03T14:51:46;14.22;82.58
65478;SHT31;53678;39.642;22.430;2023-04-03T14:54:18;14.18;82.18
65478;SHT31;53678;39.642;22.430;2023-04-03T14:56:47;14.28;82.33
65478;SHT31;53678;39.642;22.430;2023-04-03T14:59:14;14.28;82.83
65478;SHT31;53678;39.642;22.430;2023-04-03T15:01:40;14.27;83.23
65478;SHT31;53678;39.642;22.430;2023-04-03T15:04:20;14.35;83.71
65478;SHT31;53678;39.642;22.430;2023-04-03T15:06:47;14.41;83.19
65478;SHT31;53678;39.642;22.430;2023-04-03T15:09:24;14.28;83.02
65478;SHT31;53678;39.642;22.430;2023-04-03T15:11:51;14.21;82.90
65478;SHT31;53678;39.642;22.430;2023-04-03T15:14:18;14.25;83.08
65478;SHT31;53678;39.642;22.430;2023-04-03T15:16:44;14.38;82.91
65478;SHT31;53678;39.642;22.430;2023-04-03T15:19:10;14.37;82.90
65478;SHT31;53678;39.642;22.430;2023-04-03T15:21:37;14.27;83.31
65478;SHT31;53678;39.642;22.430;2023-04-03T15:24:03;14.24;84.02
65478;SHT31;53678;39.642;22.430;2023-04-03T15:26:31;14.21;84.58
65478;SHT31;53678;39.642;22.430;2023-04-03T15:29:03;14.35;85.05
65478;SHT31;53678;39.642;22.430;2023-04-03T15:31:29;14.34;84.84
65478;SHT31;53678;39.642;22.430;2023-04-03T15:33:55;14.35;85.50
65478;SHT31;53678;39.642;22.430;2023-04-03T15:36:21;14.20;85.76
65478;SHT31;53678;39.642;22.430;2023-04-03T15:38:46;14.30;86.19
65478;SHT31;53678;39.642;22.430;2023-04-03T15:41:12;14.21;86.19
65478;SHT31;53678;39.642;22.430;2023-04-03T15:43:38;14.18;86.68
65478;SHT31;53678;39.642;22.430;2023-04-03T15:46:04;14.25;86.42
65478;SHT31;53678;39.642;22.430;2023-04-03T15:48:30;14.20;86.71
65478;SHT31;53678;39.642;22.430;2023-04-03T15:50:57;14.27;87.15
65478;SHT31;53678;39.642;22.430;2023-04-03T15:53:24;14.37;87.04
65478;SHT31;53678;39.642;22.430;2023-04-03T15:55:50;14.14;88.38
65478;SHT31;53678;39.642;22.430;2023-04-03T15:58:16;13.76;88.51
65478;SHT31;53678;39.642;22.430;2023-04-03T16:00:42;13.62;89.14
65478;SHT31;53678;39.642;22.430;2023-04-03T16:03:10;13.66;89.91
65478;SHT31;53678;39.642;22.430;2023-04-03T16:05:38;13.56;88.96
65478;SHT31;53678;39.642;22.430;2023-04-03T16:08:04;13.56;89.53
65478;SHT31;53678;39.642;22.430;2023-04-03T16:10:30;13.51;89.91
65478;SHT31;53678;39.642;22.430;2023-04-03T16:12:56;13.62;90.54
65478;SHT31;53678;39.642;22.430;2023-04-03T16:15:23;13.52;90.64
65478;SHT31;53678;39.642;22.430;2023-04-03T16:17:50;13.48;91.14
65478;SHT31;53678;39.642;22.430;2023-04-03T16:20:16;13.41;91.18
65478;SHT31;53678;39.642;22.430;2023-04-03T16:22:42;13.41;91.73
65478;SHT31;53678;39.642;22.430;2023-04-03T16:25:09;13.43;91.48
65478;SHT31;53678;39.642;22.430;2023-04-03T16:27:35;13.41;92.26
65478;SHT31;53678;39.642;22.430;2023-04-03T16:30:01;13.49;91.76
65478;SHT31;53678;39.642;22.430;2023-04-03T16:32:29;13.43;92.23
65478;SHT31;53678;39.642;22.430;2023-04-03T16:34:56;13.19;92.86
65478;SHT31;53678;39.642;22.430;2023-04-03T16:37:21;13.16;93.12
65478;SHT31;53678;39.642;22.430;2023-04-03T16:39:47;13.10;92.63
65478;SHT31;53678;39.642;22.430;2023-04-03T16:42:13;13.14;92.74
65478;SHT31;53678;39.642;22.430;2023-04-03T16:44:39;13.12;92.69
65478;SHT31;53678;39.642;22.430;2023-04-03T16:47:06;13.12;92.23
65478;SHT31;53678;39.642;22.430;2023-04-03T16:49:33;13.11;92.39
65478;SHT31;53678;39.642;22.430;2023-04-03T16:52:01;13.18;92.05
65478;SHT31;53678;39.642;22.430;2023-04-03T16:54:28;13.34;91.30
65478;SHT31;53678;39.642;22.430;2023-04-03T16:56:53;13.28;91.95
65478;SHT31;53678;39.642;22.430;2023-04-03T16:59:20;13.25;91.94
65478;SHT31;53678;39.642;22.430;2023-04-03T17:01:46;13.29;92.37
65478;SHT31;53678;39.642;22.430;2023-04-03T17:04:12;13.16;92.51
65478;SHT31;53678;39.642;22.430;2023-04-03T17:06:38;13.15;92.44
65478;SHT31;53678;39.642;22.430;2023-04-03T17:09:05;12.81;92.40
65478;SHT31;53678;39.642;22.430;2023-04-03T17:11:31;12.60;92.77